sensor_id;sensor_type;location;lat;lon;timestamp;pressure;altitude;pressure_sealevel;temperature;humidity
52291;BME280;39663;45.432;28.050;2023-05-19T00:08:38;101234.50;;;19.82;35.16
52291;BME280;39663;45.432;28.050;2023-05-19T00:09:10;101236.77;;;20.22;35.10
52291;BME280;39663;45.432;28.050;2023-05-19T00:09:41;101238.00;;;19.68;35.33
52291;BME280;39663;45.432;28.050;2023-05-19T00:10:14;101240.53;;;19.67;35.49
52291;BME280;39663;45.432;28.050;2023-05-19T00:10:46;101238.60;;;19.67;36.03
52291;BME280;39663;45.432;28.050;2023-05-19T00:11:18;101238.58;;;19.98;35.57
52291;BME280;39663;45.432;28.050;2023-05-19T00:11:50;101242.53;;;19.66;35.39
52291;BME280;39663;45.432;28.050;2023-05-19T00:12:22;101240.98;;;19.79;35.57
52291;BME280;39663;45.432;28.050;2023-05-19T00:12:54;101243.20;;;19.56;35.73
52291;BME280;39663;45.432;28.050;2023-05-19T00:13:26;101243.93;;;20.19;35.33
52291;BME280;39663;45.432;28.050;2023-05-19T00:13:59;101239.27;;;19.61;35.80
52291;BME280;39663;45.432;28.050;2023-05-19T00:14:31;101242.25;;;19.92;35.57
52291;BME280;39663;45.432;28.050;2023-05-19T00:15:03;101241.07;;;19.53;35.79
52291;BME280;39663;45.432;28.050;2023-05-19T00:15:35;101241.07;;;19.76;35.60
52291;BME280;39663;45.432;28.050;2023-05-19T00:16:08;101238.88;;;19.61;35.94
52291;BME280;39663;45.432;28.050;2023-05-19T00:16:40;101240.32;;;19.76;35.63
52291;BME280;39663;45.432;28.050;2023-05-19T00:17:11;101239.57;;;19.88;35.67
52291;BME280;39663;45.432;28.050;2023-05-19T00:17:43;101238.39;;;19.92;35.53
52291;BME280;39663;45.432;28.050;2023-05-19T00:18:14;101240.10;;;19.80;35.52
52291;BME280;39663;45.432;28.050;2023-05-19T00:18:46;101240.79;;;20.06;35.24
52291;BME280;39663;45.432;28.050;2023-05-19T00:19:17;101239.07;;;20.06;35.29
52291;BME280;39663;45.432;28.050;2023-05-19T00:19:48;101241.33;;;20.05;35.20
52291;BME280;39663;45.432;28.050;2023-05-19T00:20:20;101241.26;;;20.09;35.12
52291;BME280;39663;45.432;28.050;2023-05-19T00:20:51;101243.70;;;20.06;35.27
52291;BME280;39663;45.432;28.050;2023-05-19T00:21:23;101245.30;;;20.12;35.17
52291;BME280;39663;45.432;28.050;2023-05-19T00:21:54;101248.82;;;20.20;35.16
52291;BME280;39663;45.432;28.050;2023-05-19T00:22:25;101246.02;;;20.38;35.28
52291;BME280;39663;45.432;28.050;2023-05-19T00:22:57;101247.11;;;20.10;35.40
52291;BME280;39663;45.432;28.050;2023-05-19T00:23:28;101245.67;;;20.20;35.32
52291;BME280;39663;45.432;28.050;2023-05-19T00:23:59;101247.47;;;20.10;35.43
52291;BME280;39663;45.432;28.050;2023-05-19T00:24:31;101249.66;;;19.95;35.69
52291;BME280;39663;45.432;28.050;2023-05-19T00:25:02;101247.97;;;20.11;35.61
52291;BME280;39663;45.432;28.050;2023-05-19T00:25:34;101250.32;;;19.90;35.57
52291;BME280;39663;45.432;28.050;2023-05-19T00:26:05;101249.45;;;20.17;35.53
52291;BME280;39663;45.432;28.050;2023-05-19T00:26:37;101250.69;;;20.24;35.34
52291;BME280;39663;45.432;28.050;2023-05-19T00:27:08;101255.13;;;20.20;35.49
52291;BME280;39663;45.432;28.050;2023-05-19T00:27:40;101251.56;;;20.30;35.41
52291;BME280;39663;45.432;28.050;2023-05-19T00:28:11;101252.58;;;20.50;35.51
52291;BME280;39663;45.432;28.050;2023-05-19T00:28:42;101251.26;;;20.33;35.47
52291;BME280;39663;45.432;28.050;2023-05-19T00:29:14;101252.26;;;20.38;35.76
52291;BME280;39663;45.432;28.050;2023-05-19T00:29:45;101250.79;;;20.33;35.71
52291;BME280;39663;45.432;28.050;2023-05-19T00:30:16;101250.97;;;20.22;35.69
52291;BME280;39663;45.432;28.050;2023-05-19T00:30:49;101255.95;;;20.10;35.89
52291;BME280;39663;45.432;28.050;2023-05-19T00:31:20;101255.95;;;20.15;36.18
52291;BME280;39663;45.432;28.050;2023-05-19T00:31:52;101254.10;;;20.14;35.90
52291;BME280;39663;45.432;28.050;2023-05-19T00:32:23;101259.50;;;20.21;35.91
52291;BME280;39663;45.432;28.050;2023-05-19T00:32:55;101259.80;;;20.25;36.07
52291;BME280;39663;45.432;28.050;2023-05-19T00:33:26;101257.92;;;20.03;36.07
52291;BME280;39663;45.432;28.050;2023-05-19T00:33:57;101255.77;;;20.14;36.40
52291;BME280;39663;45.432;28.050;2023-05-19T00:34:29;101260.32;;;20.21;36.27
52291;BME280;39663;45.432;28.050;2023-05-19T00:35:00;101257.77;;;20.27;36.29
52291;BME280;39663;45.432;28.050;2023-05-19T00:35:32;101260.19;;;20.28;36.10
52291;BME280;39663;45.432;28.050;2023-05-19T00:36:03;101261.66;;;20.27;36.10
52291;BME280;39663;45.432;28.050;2023-05-19T00:36:35;101257.89;;;20.02;37.24
52291;BME280;39663;45.432;28.050;2023-05-19T00:37:06;101258.92;;;20.03;37.17
52291;BME280;39663;45.432;28.050;2023-05-19T00:37:37;101257.57;;;20.03;37.13
52291;BME280;39663;45.432;28.050;2023-05-19T00:38:09;101259.10;;;20.08;37.21
52291;BME280;39663;45.432;28.050;2023-05-19T00:38:40;101258.01;;;19.98;37.28
52291;BME280;39663;45.432;28.050;2023-05-19T00:39:11;101261.90;;;20.18;37.40
52291;BME280;39663;45.432;28.050;2023-05-19T00:39:43;101253.85;;;20.12;36.98
52291;BME280;39663;45.432;28.050;2023-05-19T00:40:15;101258.97;;;19.88;37.39
52291;BME280;39663;45.432;28.050;2023-05-19T00:40:46;101255.90;;;20.06;37.02
52291;BME280;39663;45.432;28.050;2023-05-19T00:41:18;101256.22;;;20.07;37.67
52291;BME280;39663;45.432;28.050;2023-05-19T00:41:49;101253.27;;;20.08;37.35
52291;BME280;39663;45.432;28.050;2023-05-19T00:42:21;101258.47;;;20.31;37.71
52291;BME280;39663;45.432;28.050;2023-05-19T00:42:52;101257.70;;;20.25;37.97
52291;BME280;39663;45.432;28.050;2023-05-19T00:43:23;101261.75;;;20.27;37.20
52291;BME280;39663;45.432;28.050;2023-05-19T00:43:55;101260.29;;;20.30;37.70
52291;BME280;39663;45.432;28.050;2023-05-19T00:44:26;101256.52;;;20.02;37.88
52291;BME280;39663;45.432;28.050;2023-05-19T00:44:57;101257.61;;;20.12;37.50
52291;BME280;39663;45.432;28.050;2023-05-19T00:45:29;101259.32;;;20.13;37.40
52291;BME280;39663;45.432;28.050;2023-05-19T00:46:00;101264.17;;;20.04;38.13
52291;BME280;39663;45.432;28.050;2023-05-19T00:46:32;101265.01;;;20.22;37.82
52291;BME280;39663;45.432;28.050;2023-05-19T00:47:04;101263.21;;;20.25;37.47
52291;BME280;39663;45.432;28.050;2023-05-19T00:47:35;101262.97;;;20.22;38.11
52291;BME280;39663;45.432;28.050;2023-05-19T00:48:06;101262.22;;;20.15;38.58
52291;BME280;39663;45.432;28.050;2023-05-19T00:48:38;101266.73;;;20.05;38.54
52291;BME280;39663;45.432;28.050;2023-05-19T00:49:09;101267.96;;;20.03;38.97
52291;BME280;39663;45.432;28.050;2023-05-19T00:49:41;101267.32;;;20.06;39.16
52291;BME280;39663;45.432;28.050;2023-05-19T00:50:12;101265.83;;;20.03;38.56
52291;BME280;39663;45.432;28.050;2023-05-19T00:50:44;101268.52;;;19.84;38.45
52291;BME280;39663;45.432;28.050;2023-05-19T00:51:16;101267.56;;;20.12;39.21
52291;BME280;39663;45.432;28.050;2023-05-19T00:51:48;101269.23;;;20.09;38.72
52291;BME280;39663;45.432;28.050;2023-05-19T00:52:20;101267.70;;;19.98;39.01
52291;BME280;39663;45.432;28.050;2023-05-19T00:52:51;101272.86;;;20.09;38.53
52291;BME280;39663;45.432;28.050;2023-05-19T00:53:23;101271.47;;;20.09;39.74
52291;BME280;39663;45.432;28.050;2023-05-19T00:53:55;101275.97;;;19.75;39.14
52291;BME280;39663;45.432;28.050;2023-05-19T00:54:27;101273.38;;;19.66;40.30
52291;BME280;39663;45.432;28.050;2023-05-19T00:54:59;101272.88;;;20.00;39.12
52291;BME280;39663;45.432;28.050;2023-05-19T00:55:31;101275.10;;;20.03;39.77
52291;BME280;39663;45.432;28.050;2023-05-19T00:56:03;101273.72;;;19.93;39.16
52291;BME280;39663;45.432;28.050;2023-05-19T00:56:35;101273.06;;;20.02;39.04
52291;BME280;39663;45.432;28.050;2023-05-19T00:57:06;101273.02;;;20.01;39.32
52291;BME280;39663;45.432;28.050;2023-05-19T00:57:38;101273.57;;;20.05;40.32
52291;BME280;39663;45.432;28.050;2023-05-19T00:58:11;101273.65;;;19.99;39.45
52291;BME280;39663;45.432;28.050;2023-05-19T00:58:43;101276.20;;;20.08;39.90
52291;BME280;39663;45.432;28.050;2023-05-19T00:59:14;101275.30;;;20.02;39.46
52291;BME280;39663;45.432;28.050;2023-05-19T00:59:46;101271.88;;;19.97;39.48
52291;BME280;39663;45.432;28.050;2023-05-19T01:00:18;101274.54;;;20.24;39.54
52291;BME280;39663;45.432;28.050;2023-05-19T01:00:49;101275.52;;;20.24;40.10
52291;BME280;39663;45.432;28.050;2023-05-19T01:01:21;101275.85;;;20.10;41.08
52291;BME280;39663;45.432;28.050;2023-05-19T01:01:53;101276.22;;;19.99;41.54
52291;BME280;39663;45.432;28.050;2023-05-19T01:02:24;101277.92;;;20.09;40.43
52291;BME280;39663;45.432;28.050;2023-05-19T01:02:56;101275.98;;;20.21;40.88
52291;BME280;39663;45.432;28.050;2023-05-19T01:03:28;101277.61;;;19.75;41.23
52291;BME280;39663;45.432;28.050;2023-05-19T01:03:59;101275.26;;;20.09;40.82
52291;BME280;39663;45.432;28.050;2023-05-19T01:04:31;101277.38;;;20.01;40.78
52291;BME280;39663;45.432;28.050;2023-05-19T01:05:03;101276.14;;;20.24;40.74
52291;BME280;39663;45.432;28.050;2023-05-19T01:05:35;101279.65;;;20.18;40.68
52291;BME280;39663;45.432;28.050;2023-05-19T01:06:07;101279.72;;;19.87;41.52
52291;BME280;39663;45.432;28.050;2023-05-19T01:06:39;101278.26;;;20.05;41.00
52291;BME280;39663;45.432;28.050;2023-05-19T01:07:10;101275.87;;;20.18;41.47
52291;BME280;39663;45.432;28.050;2023-05-19T01:07:42;101280.49;;;20.20;40.93
52291;BME280;39663;45.432;28.050;2023-05-19T01:08:14;101277.17;;;20.14;41.36
52291;BME280;39663;45.432;28.050;2023-05-19T01:08:45;101277.62;;;19.97;41.66
52291;BME280;39663;45.432;28.050;2023-05-19T01:09:17;101278.11;;;20.16;42.51
52291;BME280;39663;45.432;28.050;2023-05-19T01:09:49;101279.85;;;20.06;41.89
52291;BME280;39663;45.432;28.050;2023-05-19T01:10:20;101278.06;;;20.05;42.10
52291;BME280;39663;45.432;28.050;2023-05-19T01:10:51;101276.84;;;20.15;41.89
52291;BME280;39663;45.432;28.050;2023-05-19T01:11:23;101280.68;;;19.94;42.59
52291;BME280;39663;45.432;28.050;2023-05-19T01:11:54;101281.13;;;19.88;41.83
52291;BME280;39663;45.432;28.050;2023-05-19T01:12:26;101280.50;;;20.14;41.88
52291;BME280;39663;45.432;28.050;2023-05-19T01:12:58;101279.58;;;19.99;41.86
52291;BME280;39663;45.432;28.050;2023-05-19T01:13:31;101278.71;;;19.92;42.14
52291;BME280;39663;45.432;28.050;2023-05-19T01:14:03;101277.62;;;19.95;42.82
52291;BME280;39663;45.432;28.050;2023-05-19T01:14:35;101277.03;;;20.11;41.98
52291;BME280;39663;45.432;28.050;2023-05-19T01:15:07;101274.56;;;19.80;41.88
52291;BME280;39663;45.432;28.050;2023-05-19T01:15:46;101276.95;;;20.03;41.78
52291;BME280;39663;45.432;28.050;2023-05-19T01:16:25;101276.14;;;20.21;42.22
52291;BME280;39663;45.432;28.050;2023-05-19T01:17:02;101273.66;;;19.95;42.25
52291;BME280;39663;45.432;28.050;2023-05-19T01:17:38;101277.94;;;20.05;42.57
52291;BME280;39663;45.432;28.050;2023-05-19T01:18:14;101277.81;;;20.08;42.09
52291;BME280;39663;45.432;28.050;2023-05-19T01:18:55;101278.59;;;19.65;42.95
52291;BME280;39663;45.432;28.050;2023-05-19T01:19:51;101275.17;;;19.88;42.49
52291;BME280;39663;45.432;28.050;2023-05-19T01:20:31;101275.51;;;19.98;42.17
52291;BME280;39663;45.432;28.050;2023-05-19T01:21:25;101276.02;;;19.80;42.28
52291;BME280;39663;45.432;28.050;2023-05-19T01:22:11;101273.60;;;20.17;42.30
52291;BME280;39663;45.432;28.050;2023-05-19T01:23:03;101275.41;;;20.34;41.95
52291;BME280;39663;45.432;28.050;2023-05-19T01:23:48;101277.28;;;20.37;42.17
52291;BME280;39663;45.432;28.050;2023-05-19T01:24:36;101270.34;;;19.98;42.37
52291;BME280;39663;45.432;28.050;2023-05-19T01:25:30;101271.51;;;20.10;42.10
52291;BME280;39663;45.432;28.050;2023-05-19T01:26:34;101269.29;;;19.98;41.99
52291;BME280;39663;45.432;28.050;2023-05-19T01:27:30;101274.66;;;19.51;43.03
52291;BME280;39663;45.432;28.050;2023-05-19T01:28:22;101273.19;;;19.96;42.66
52291;BME280;39663;45.432;28.050;2023-05-19T01:29:13;101270.25;;;20.22;42.47
52291;BME280;39663;45.432;28.050;2023-05-19T01:30:10;101272.07;;;19.87;42.20
52291;BME280;39663;45.432;28.050;2023-05-19T01:30:43;101272.24;;;20.02;41.91
52291;BME280;39663;45.432;28.050;2023-05-19T01:31:16;101272.29;;;20.29;42.23
52291;BME280;39663;45.432;28.050;2023-05-19T01:31:52;101274.28;;;20.12;42.47
52291;BME280;39663;45.432;28.050;2023-05-19T01:32:26;101274.63;;;20.21;42.54
52291;BME280;39663;45.432;28.050;2023-05-19T01:33:01;101271.37;;;19.79;42.69
52291;BME280;39663;45.432;28.050;2023-05-19T01:33:34;101276.97;;;20.08;42.99
52291;BME280;39663;45.432;28.050;2023-05-19T01:34:06;101274.42;;;19.85;42.77
52291;BME280;39663;45.432;28.050;2023-05-19T01:34:42;101279.73;;;19.93;42.48
52291;BME280;39663;45.432;28.050;2023-05-19T01:35:14;101273.72;;;19.81;42.99
52291;BME280;39663;45.432;28.050;2023-05-19T01:35:47;101273.37;;;19.91;43.05
52291;BME280;39663;45.432;28.050;2023-05-19T01:36:19;101274.17;;;19.55;43.22
52291;BME280;39663;45.432;28.050;2023-05-19T01:36:53;101275.77;;;19.75;43.29
52291;BME280;39663;45.432;28.050;2023-05-19T01:37:26;101270.90;;;19.99;42.89
52291;BME280;39663;45.432;28.050;2023-05-19T01:37:59;101272.41;;;19.74;42.89
52291;BME280;39663;45.432;28.050;2023-05-19T01:38:33;101273.72;;;20.01;43.25
52291;BME280;39663;45.432;28.050;2023-05-19T01:39:08;101274.37;;;20.02;42.85
52291;BME280;39663;45.432;28.050;2023-05-19T01:39:39;101273.00;;;20.00;43.25
52291;BME280;39663;45.432;28.050;2023-05-19T01:40:12;101274.44;;;19.91;43.03
52291;BME280;39663;45.432;28.050;2023-05-19T01:40:45;101279.62;;;19.63;43.40
52291;BME280;39663;45.432;28.050;2023-05-19T01:41:18;101275.97;;;19.57;43.29
52291;BME280;39663;45.432;28.050;2023-05-19T01:41:51;101279.31;;;19.70;43.58
52291;BME280;39663;45.432;28.050;2023-05-19T01:42:24;101273.95;;;19.70;43.29
52291;BME280;39663;45.432;28.050;2023-05-19T01:42:59;101276.97;;;19.85;43.04
52291;BME280;39663;45.432;28.050;2023-05-19T01:43:32;101279.01;;;19.94;43.25
52291;BME280;39663;45.432;28.050;2023-05-19T01:44:04;101276.85;;;19.97;42.85
52291;BME280;39663;45.432;28.050;2023-05-19T01:44:36;101276.73;;;19.58;43.52
52291;BME280;39663;45.432;28.050;2023-05-19T01:45:08;101279.23;;;19.79;43.31
52291;BME280;39663;45.432;28.050;2023-05-19T01:45:41;101281.27;;;19.71;43.42
52291;BME280;39663;45.432;28.050;2023-05-19T01:46:13;101281.27;;;19.86;43.10
52291;BME280;39663;45.432;28.050;2023-05-19T01:46:45;101284.26;;;19.75;42.93
52291;BME280;39663;45.432;28.050;2023-05-19T01:47:17;101282.10;;;19.96;42.90
52291;BME280;39663;45.432;28.050;2023-05-19T01:47:53;101278.01;;;19.60;43.20
52291;BME280;39663;45.432;28.050;2023-05-19T01:48:26;101280.12;;;19.73;42.92
52291;BME280;39663;45.432;28.050;2023-05-19T01:48:57;101279.01;;;19.89;43.32
52291;BME280;39663;45.432;28.050;2023-05-19T01:49:29;101282.08;;;19.91;43.13
52291;BME280;39663;45.432;28.050;2023-05-19T01:50:00;101278.82;;;19.93;43.07
52291;BME280;39663;45.432;28.050;2023-05-19T01:50:33;101282.49;;;19.79;43.48
52291;BME280;39663;45.432;28.050;2023-05-19T01:51:05;101280.47;;;19.81;43.25
52291;BME280;39663;45.432;28.050;2023-05-19T01:51:36;101280.38;;;19.84;43.20
52291;BME280;39663;45.432;28.050;2023-05-19T01:52:07;101280.85;;;19.86;43.26
52291;BME280;39663;45.432;28.050;2023-05-19T01:52:39;101278.79;;;19.66;43.42
52291;BME280;39663;45.432;28.050;2023-05-19T01:53:10;101280.23;;;19.83;43.06
52291;BME280;39663;45.432;28.050;2023-05-19T01:53:42;101279.70;;;19.64;43.61
52291;BME280;39663;45.432;28.050;2023-05-19T01:54:13;101282.48;;;19.68;43.39
52291;BME280;39663;45.432;28.050;2023-05-19T01:54:44;101279.97;;;19.70;43.35
52291;BME280;39663;45.432;28.050;2023-05-19T01:55:16;101280.82;;;19.77;43.23
52291;BME280;39663;45.432;28.050;2023-05-19T01:55:49;101280.55;;;19.65;43.47
52291;BME280;39663;45.432;28.050;2023-05-19T01:56:30;101280.10;;;19.64;43.22
52291;BME280;39663;45.432;28.050;2023-05-19T01:57:10;101284.30;;;19.76;43.23
52291;BME280;39663;45.432;28.050;2023-05-19T01:57:54;101282.34;;;19.72;43.24
52291;BME280;39663;45.432;28.050;2023-05-19T01:58:36;101281.04;;;19.83;43.25
52291;BME280;39663;45.432;28.050;2023-05-19T01:59:20;101285.12;;;19.71;43.22
52291;BME280;39663;45.432;28.050;2023-05-19T02:00:00;101280.64;;;19.71;43.17
52291;BME280;39663;45.432;28.050;2023-05-19T02:00:42;101286.43;;;19.59;43.25
52291;BME280;39663;45.432;28.050;2023-05-19T02:01:25;101286.06;;;19.80;43.15
52291;BME280;39663;45.432;28.050;2023-05-19T02:02:03;101287.23;;;19.59;43.15
52291;BME280;39663;45.432;28.050;2023-05-19T02:02:47;101288.38;;;19.68;43.39
52291;BME280;39663;45.432;28.050;2023-05-19T02:03:36;101287.37;;;19.71;43.36
52291;BME280;39663;45.432;28.050;2023-05-19T02:04:17;101287.80;;;19.86;43.17
52291;BME280;39663;45.432;28.050;2023-05-19T02:04:53;101287.59;;;19.85;43.25
52291;BME280;39663;45.432;28.050;2023-05-19T02:05:33;101288.20;;;19.92;43.04
52291;BME280;39663;45.432;28.050;2023-05-19T02:06:18;101290.57;;;19.74;43.38
52291;BME280;39663;45.432;28.050;2023-05-19T02:07:00;101289.46;;;19.49;43.43
52291;BME280;39663;45.432;28.050;2023-05-19T02:07:40;101288.18;;;19.68;43.12
52291;BME280;39663;45.432;28.050;2023-05-19T02:08:18;101290.96;;;19.91;42.98
52291;BME280;39663;45.432;28.050;2023-05-19T02:08:57;101288.77;;;19.83;43.08
52291;BME280;39663;45.432;28.050;2023-05-19T02:09:37;101291.62;;;19.74;43.15
52291;BME280;39663;45.432;28.050;2023-05-19T02:10:12;101291.12;;;19.89;43.00
52291;BME280;39663;45.432;28.050;2023-05-19T02:10:50;101292.47;;;19.91;42.94
52291;BME280;39663;45.432;28.050;2023-05-19T02:11:30;101290.15;;;19.98;43.00
52291;BME280;39663;45.432;28.050;2023-05-19T02:12:10;101292.93;;;19.71;43.26
52291;BME280;39663;45.432;28.050;2023-05-19T02:12:43;101295.74;;;19.78;43.28
52291;BME280;39663;45.432;28.050;2023-05-19T02:13:18;101294.10;;;19.74;43.27
52291;BME280;39663;45.432;28.050;2023-05-19T02:13:52;101292.26;;;19.69;43.14
52291;BME280;39663;45.432;28.050;2023-05-19T02:14:30;101293.07;;;19.73;43.05
52291;BME280;39663;45.432;28.050;2023-05-19T02:15:06;101294.08;;;19.95;42.74
52291;BME280;39663;45.432;28.050;2023-05-19T02:15:39;101294.36;;;19.76;42.71
52291;BME280;39663;45.432;28.050;2023-05-19T02:16:12;101293.49;;;19.96;42.84
52291;BME280;39663;45.432;28.050;2023-05-19T02:16:47;101297.30;;;19.93;42.73
52291;BME280;39663;45.432;28.050;2023-05-19T02:17:19;101296.92;;;19.91;42.83
52291;BME280;39663;45.432;28.050;2023-05-19T02:17:54;101293.34;;;19.74;43.03
52291;BME280;39663;45.432;28.050;2023-05-19T02:18:27;101298.10;;;19.70;42.81
52291;BME280;39663;45.432;28.050;2023-05-19T02:18:59;101299.40;;;19.87;42.67
52291;BME280;39663;45.432;28.050;2023-05-19T02:19:32;101296.83;;;19.93;42.71
52291;BME280;39663;45.432;28.050;2023-05-19T02:20:05;101298.96;;;20.04;42.56
52291;BME280;39663;45.432;28.050;2023-05-19T02:20:37;101298.33;;;19.92;42.73
52291;BME280;39663;45.432;28.050;2023-05-19T02:21:08;101301.44;;;19.66;42.83
52291;BME280;39663;45.432;28.050;2023-05-19T02:21:40;101299.62;;;19.93;42.63
52291;BME280;39663;45.432;28.050;2023-05-19T02:22:11;101301.92;;;19.77;42.63
52291;BME280;39663;45.432;28.050;2023-05-19T02:22:43;101302.55;;;19.94;42.94
52291;BME280;39663;45.432;28.050;2023-05-19T02:23:14;101303.30;;;19.80;42.99
52291;BME280;39663;45.432;28.050;2023-05-19T02:23:46;101301.49;;;19.73;42.97
52291;BME280;39663;45.432;28.050;2023-05-19T02:24:18;101305.27;;;19.83;42.89
52291;BME280;39663;45.432;28.050;2023-05-19T02:24:49;101307.48;;;19.74;43.06
52291;BME280;39663;45.432;28.050;2023-05-19T02:25:21;101304.38;;;19.69;43.06
52291;BME280;39663;45.432;28.050;2023-05-19T02:25:57;101308.38;;;19.82;42.77
52291;BME280;39663;45.432;28.050;2023-05-19T02:26:29;101306.73;;;19.79;42.78
52291;BME280;39663;45.432;28.050;2023-05-19T02:27:00;101306.58;;;19.86;42.76
52291;BME280;39663;45.432;28.050;2023-05-19T02:27:32;101305.69;;;19.95;42.65
52291;BME280;39663;45.432;28.050;2023-05-19T02:28:04;101305.64;;;19.86;42.42
52291;BME280;39663;45.432;28.050;2023-05-19T02:28:35;101302.93;;;19.89;42.64
52291;BME280;39663;45.432;28.050;2023-05-19T02:29:07;101306.16;;;19.87;42.63
52291;BME280;39663;45.432;28.050;2023-05-19T02:29:38;101309.33;;;19.80;42.48
52291;BME280;39663;45.432;28.050;2023-05-19T02:30:10;101305.86;;;19.83;42.64
52291;BME280;39663;45.432;28.050;2023-05-19T02:30:41;101307.43;;;19.79;42.82
52291;BME280;39663;45.432;28.050;2023-05-19T02:31:12;101309.06;;;19.78;42.59
52291;BME280;39663;45.432;28.050;2023-05-19T02:31:44;101312.22;;;19.70;42.62
52291;BME280;39663;45.432;28.050;2023-05-19T02:32:16;101307.99;;;19.79;42.30
52291;BME280;39663;45.432;28.050;2023-05-19T02:32:47;101310.00;;;19.82;42.37
52291;BME280;39663;45.432;28.050;2023-05-19T02:33:19;101312.04;;;19.94;42.52
52291;BME280;39663;45.432;28.050;2023-05-19T02:33:50;101311.10;;;19.53;43.03
52291;BME280;39663;45.432;28.050;2023-05-19T02:34:21;101311.43;;;19.64;42.86
52291;BME280;39663;45.432;28.050;2023-05-19T02:34:52;101313.73;;;19.54;43.06
52291;BME280;39663;45.432;28.050;2023-05-19T02:35:24;101313.52;;;19.29;43.22
52291;BME280;39663;45.432;28.050;2023-05-19T02:35:55;101314.52;;;19.61;42.94
52291;BME280;39663;45.432;28.050;2023-05-19T02:36:26;101314.24;;;19.48;43.06
52291;BME280;39663;45.432;28.050;2023-05-19T02:36:58;101316.25;;;19.50;43.10
52291;BME280;39663;45.432;28.050;2023-05-19T02:37:29;101317.90;;;19.49;43.06
52291;BME280;39663;45.432;28.050;2023-05-19T02:38:01;101316.79;;;19.35;42.96
52291;BME280;39663;45.432;28.050;2023-05-19T02:38:32;101318.62;;;19.56;42.98
52291;BME280;39663;45.432;28.050;2023-05-19T02:39:03;101317.74;;;19.68;42.90
52291;BME280;39663;45.432;28.050;2023-05-19T02:39:35;101316.47;;;19.36;43.26
52291;BME280;39663;45.432;28.050;2023-05-19T02:40:07;101317.76;;;18.91;43.71
52291;BME280;39663;45.432;28.050;2023-05-19T02:40:39;101316.67;;;19.15;43.26
52291;BME280;39663;45.432;28.050;2023-05-19T02:41:10;101318.88;;;19.42;43.13
52291;BME280;39663;45.432;28.050;2023-05-19T02:41:41;101316.63;;;19.61;43.09
52291;BME280;39663;45.432;28.050;2023-05-19T02:42:12;101321.24;;;19.00;43.78
52291;BME280;39663;45.432;28.050;2023-05-19T02:42:44;101319.03;;;19.24;43.45
52291;BME280;39663;45.432;28.050;2023-05-19T02:43:15;101314.60;;;19.38;43.34
52291;BME280;39663;45.432;28.050;2023-05-19T02:43:47;101318.32;;;18.72;44.20
52291;BME280;39663;45.432;28.050;2023-05-19T02:44:18;101318.47;;;18.99;43.96
52291;BME280;39663;45.432;28.050;2023-05-19T02:44:49;101318.98;;;18.98;43.94
52291;BME280;39663;45.432;28.050;2023-05-19T02:45:21;101319.48;;;18.40;44.78
52291;BME280;39663;45.432;28.050;2023-05-19T02:45:52;101317.66;;;18.43;44.71
52291;BME280;39663;45.432;28.050;2023-05-19T02:46:24;101314.89;;;18.90;44.43
52291;BME280;39663;45.432;28.050;2023-05-19T02:46:55;101318.97;;;19.02;44.23
52291;BME280;39663;45.432;28.050;2023-05-19T02:47:26;101319.89;;;18.90;44.13
52291;BME280;39663;45.432;28.050;2023-05-19T02:47:58;101319.13;;;18.98;43.87
52291;BME280;39663;45.432;28.050;2023-05-19T02:48:30;101319.34;;;19.09;43.62
52291;BME280;39663;45.432;28.050;2023-05-19T02:49:01;101321.74;;;19.24;43.50
52291;BME280;39663;45.432;28.050;2023-05-19T02:49:33;101320.21;;;19.44;43.53
52291;BME280;39663;45.432;28.050;2023-05-19T02:50:05;101321.00;;;19.10;43.60
52291;BME280;39663;45.432;28.050;2023-05-19T02:50:37;101320.74;;;19.05;43.70
52291;BME280;39663;45.432;28.050;2023-05-19T02:51:08;101319.62;;;19.14;43.51
52291;BME280;39663;45.432;28.050;2023-05-19T02:51:40;101319.34;;;19.21;43.44
52291;BME280;39663;45.432;28.050;2023-05-19T02:52:11;101322.36;;;19.37;43.13
52291;BME280;39663;45.432;28.050;2023-05-19T02:52:43;101322.91;;;19.19;43.39
52291;BME280;39663;45.432;28.050;2023-05-19T02:53:14;101321.54;;;19.33;43.16
52291;BME280;39663;45.432;28.050;2023-05-19T02:53:45;101322.06;;;19.43;43.33
52291;BME280;39663;45.432;28.050;2023-05-19T02:54:17;101323.31;;;19.50;43.18
52291;BME280;39663;45.432;28.050;2023-05-19T02:54:48;101325.80;;;19.32;43.09
52291;BME280;39663;45.432;28.050;2023-05-19T02:55:19;101321.51;;;19.22;43.14
52291;BME280;39663;45.432;28.050;2023-05-19T02:55:51;101320.30;;;19.19;43.30
52291;BME280;39663;45.432;28.050;2023-05-19T02:56:22;101323.32;;;19.09;43.65
52291;BME280;39663;45.432;28.050;2023-05-19T02:56:54;101323.53;;;19.26;43.36
52291;BME280;39663;45.432;28.050;2023-05-19T02:57:25;101322.67;;;19.19;43.28
52291;BME280;39663;45.432;28.050;2023-05-19T02:57:57;101323.06;;;19.06;43.45
52291;BME280;39663;45.432;28.050;2023-05-19T02:58:28;101321.90;;;19.21;43.62
52291;BME280;39663;45.432;28.050;2023-05-19T02:59:00;101324.28;;;18.99;43.83
52291;BME280;39663;45.432;28.050;2023-05-19T02:59:31;101327.72;;;19.29;43.76
52291;BME280;39663;45.432;28.050;2023-05-19T03:00:03;101322.99;;;18.92;43.74
52291;BME280;39663;45.432;28.050;2023-05-19T03:00:34;101323.95;;;19.05;43.61
52291;BME280;39663;45.432;28.050;2023-05-19T03:01:06;101325.81;;;19.10;43.27
52291;BME280;39663;45.432;28.050;2023-05-19T03:01:37;101324.17;;;19.02;43.82